Time;durP1;ratioP1;P1;durP2;ratioP2;P2;SDS_P1;SDS_P2;PMS_P1;PMS_P2;Temp;Humidity;BMP_temperature;BMP_pressure;BME280_temperature;BME280_humidity;BME280_pressure;Samples;Min_cycle;Max_cycle;Signal;HPM_P1;HPM_P2
2022/11/15 00:00:47;;;;;;;24.00;15.10;;;6.00;99.90;;;;;;5070843;28;20424;-83
2022/11/15 00:03:21;;;;;;;25.00;13.93;;;6.00;99.90;;;;;;5068987;28;20459;-83
2022/11/15 00:05:47;;;;;;;25.27;15.40;;;6.00;99.90;;;;;;5073616;28;20391;-83
2022/11/15 00:08:13;;;;;;;27.47;14.03;;;6.10;99.90;;;;;;5070492;28;20406;-83
2022/11/15 00:10:39;;;;;;;29.03;15.30;;;6.10;99.90;;;;;;5054025;28;20269;-84
2022/11/15 00:13:14;;;;;;;24.60;14.53;;;6.10;99.90;;;;;;5054197;28;20447;-83
2022/11/15 00:15:41;;;;;;;26.30;14.97;;;6.10;99.90;;;;;;5054271;28;20172;-83
2022/11/15 00:18:12;;;;;;;23.50;14.17;;;6.10;99.90;;;;;;5053934;28;20523;-83
2022/11/15 00:20:37;;;;;;;24.90;13.70;;;6.00;99.90;;;;;;5053846;28;20479;-83
2022/11/15 00:23:04;;;;;;;23.00;13.47;;;6.10;99.90;;;;;;5036078;28;20432;-83
2022/11/15 00:25:29;;;;;;;24.07;14.73;;;6.10;99.90;;;;;;5053479;28;20175;-84
2022/11/15 00:27:56;;;;;;;25.70;15.30;;;6.10;99.90;;;;;;5053753;28;20423;-83
2022/11/15 00:30:22;;;;;;;22.43;13.53;;;6.10;99.90;;;;;;5053725;28;20179;-84
2022/11/15 00:32:47;;;;;;;23.80;14.73;;;6.00;99.90;;;;;;5053630;28;20417;-84
2022/11/15 00:35:13;;;;;;;25.17;15.00;;;6.00;99.90;;;;;;5053695;28;20627;-84
2022/11/15 00:37:38;;;;;;;23.63;15.27;;;6.00;99.90;;;;;;5053540;28;20238;-84
2022/11/15 00:40:05;;;;;;;22.70;14.50;;;5.90;99.90;;;;;;5053334;28;20180;-83
2022/11/15 00:42:30;;;;;;;24.53;14.97;;;5.90;99.90;;;;;;5052474;28;20529;-83
2022/11/15 00:44:55;;;;;;;29.93;15.80;;;5.90;99.90;;;;;;5053029;28;20420;-84
2022/11/15 00:47:21;;;;;;;31.97;17.90;;;5.90;99.90;;;;;;5052879;28;20579;-84
2022/11/15 00:49:46;;;;;;;24.53;14.17;;;5.90;99.90;;;;;;5052992;28;20186;-85
2022/11/15 00:52:12;;;;;;;28.13;15.77;;;6.00;99.90;;;;;;5053487;28;20185;-87
2022/11/15 00:54:37;;;;;;;26.50;15.40;;;6.00;99.90;;;;;;5053282;28;20636;-84
2022/11/15 00:57:03;;;;;;;23.97;15.60;;;6.00;99.90;;;;;;5052895;28;20183;-84
2022/11/15 00:59:29;;;;;;;24.33;14.93;;;6.00;99.90;;;;;;5053307;28;20182;-85
2022/11/15 01:01:54;;;;;;;24.00;13.83;;;6.00;99.90;;;;;;5053294;28;20451;-84
2022/11/15 01:04:20;;;;;;;23.80;14.00;;;6.10;99.90;;;;;;5053169;28;20182;-84
2022/11/15 01:06:45;;;;;;;29.60;15.70;;;6.00;99.90;;;;;;5053105;28;20554;-84
2022/11/15 01:09:13;;;;;;;26.63;15.20;;;6.00;99.90;;;;;;5053109;28;20178;-84
2022/11/15 01:11:39;;;;;;;20.87;14.33;;;6.00;99.90;;;;;;5052709;28;20507;-84
2022/11/15 01:14:05;;;;;;;25.17;15.27;;;6.00;99.90;;;;;;5053014;28;20481;-84
2022/11/15 01:16:31;;;;;;;21.93;14.43;;;6.00;99.90;;;;;;5053019;28;20492;-84
2022/11/15 01:18:56;;;;;;;23.07;14.03;;;5.80;99.90;;;;;;5052955;28;20208;-85
2022/11/15 01:21:21;;;;;;;23.40;14.70;;;5.80;99.90;;;;;;5052993;28;20178;-84
2022/11/15 01:23:47;;;;;;;24.47;13.90;;;5.70;99.90;;;;;;5052959;28;20163;-84
2022/11/15 01:26:14;;;;;;;23.43;14.10;;;5.70;99.90;;;;;;5052501;28;20174;-83
2022/11/15 01:28:41;;;;;;;25.00;13.57;;;5.70;99.90;;;;;;5052721;28;20535;-83
2022/11/15 01:31:17;;;;;;;23.40;13.43;;;5.60;99.90;;;;;;5052835;28;20818;-85
2022/11/15 01:33:43;;;;;;;24.90;14.20;;;5.60;99.90;;;;;;5052950;28;20440;-84
2022/11/15 01:36:18;;;;;;;23.40;13.17;;;5.60;99.90;;;;;;5052872;28;20834;-83
2022/11/15 01:38:44;;;;;;;27.40;15.23;;;5.50;99.90;;;;;;5052635;28;20858;-83
2022/11/15 01:41:26;;;;;;;24.40;14.20;;;5.50;99.90;;;;;;5052413;28;20404;-83
2022/11/15 01:44:15;;;;;;;21.20;14.07;;;5.50;99.90;;;;;;5052773;28;20167;-84
2022/11/15 01:46:46;;;;;;;22.30;13.30;;;5.40;99.90;;;;;;5020938;28;20483;-84
2022/11/15 01:49:16;;;;;;;23.93;14.30;;;5.40;99.90;;;;;;5052673;28;20401;-84
2022/11/15 01:51:42;;;;;;;21.90;14.00;;;5.40;99.90;;;;;;5053040;28;20490;-84
2022/11/15 01:54:12;;;;;;;23.30;12.87;;;5.40;99.90;;;;;;5056794;28;20567;-83
2022/11/15 01:56:45;;;;;;;22.97;14.70;;;5.40;99.90;;;;;;5056277;28;20164;-83
2022/11/15 01:59:11;;;;;;;22.23;14.27;;;5.30;99.90;;;;;;5056657;28;20489;-85
2022/11/15 02:01:40;;;;;;;22.67;13.77;;;5.20;99.90;;;;;;5056341;28;20402;-83
2022/11/15 02:04:22;;;;;;;21.10;11.60;;;5.20;99.90;;;;;;5056303;28;20408;-83
2022/11/15 02:06:48;;;;;;;21.97;12.70;;;5.20;99.90;;;;;;5056514;28;20420;-84
2022/11/15 02:09:14;;;;;;;21.23;12.83;;;5.20;99.90;;;;;;5056537;28;20503;-83
2022/11/15 02:11:40;;;;;;;22.20;14.03;;;5.20;99.90;;;;;;5056023;28;20779;-83
2022/11/15 02:14:07;;;;;;;21.83;12.27;;;5.10;99.90;;;;;;5056390;28;20408;-83
2022/11/15 02:16:39;;;;;;;23.30;14.30;;;5.10;99.90;;;;;;5056298;28;20458;-84
2022/11/15 02:19:39;;;;;;;24.47;13.10;;;5.10;99.90;;;;;;5056220;28;20478;-84
2022/11/15 02:22:20;;;;;;;20.97;13.20;;;5.10;99.90;;;;;;5056198;28;20471;-83
2022/11/15 02:25:00;;;;;;;22.70;14.77;;;5.20;99.90;;;;;;5056107;28;20439;-83
2022/11/15 02:27:56;;;;;;;23.33;13.47;;;5.10;99.90;;;;;;5056088;28;20437;-83
2022/11/15 02:30:25;;;;;;;24.17;14.20;;;5.10;99.90;;;;;;5056094;28;20405;-84
2022/11/15 02:32:58;;;;;;;21.80;12.67;;;5.10;99.90;;;;;;5055861;28;20424;-84
2022/11/15 02:35:42;;;;;;;20.07;13.00;;;5.10;99.90;;;;;;5056061;28;20425;-83
2022/11/15 02:38:31;;;;;;;23.20;12.70;;;5.00;99.90;;;;;;5055829;28;20467;-84
2022/11/15 02:41:31;;;;;;;23.00;14.03;;;5.00;99.90;;;;;;5055003;28;20506;-84
2022/11/15 02:44:04;;;;;;;21.10;12.23;;;5.00;99.90;;;;;;5055874;28;20406;-83
2022/11/15 02:47:13;;;;;;;18.30;11.20;;;4.90;99.90;;;;;;5055110;28;20448;-83
2022/11/15 02:49:51;;;;;;;21.67;13.47;;;4.90;99.90;;;;;;5037049;28;20428;-84
2022/11/15 02:52:22;;;;;;;22.53;13.17;;;4.90;99.90;;;;;;5055786;28;20403;-83
2022/11/15 02:54:59;;;;;;;20.17;11.07;;;4.90;99.90;;;;;;5055730;28;20400;-84
2022/11/15 02:57:51;;;;;;;21.77;14.20;;;4.90;99.90;;;;;;5055625;28;20458;-86
2022/11/15 03:00:20;;;;;;;24.90;12.83;;;5.00;99.90;;;;;;5055490;28;20804;-85
2022/11/15 03:03:21;;;;;;;22.43;12.80;;;4.90;99.90;;;;;;5055510;28;20425;-85
2022/11/15 03:06:27;;;;;;;23.27;12.40;;;5.00;99.90;;;;;;5055091;28;20438;-85
2022/11/15 03:08:57;;;;;;;19.43;11.20;;;4.90;99.90;;;;;;5050432;28;20786;-84
2022/11/15 03:11:23;;;;;;;19.73;12.13;;;4.90;99.90;;;;;;5054928;28;20429;-85
2022/11/15 03:13:55;;;;;;;19.47;13.20;;;4.90;99.90;;;;;;5055323;28;20471;-84
2022/11/15 03:16:36;;;;;;;16.37;10.87;;;5.00;99.90;;;;;;5055290;28;20402;-84
2022/11/15 03:19:17;;;;;;;19.40;11.47;;;5.20;99.90;;;;;;5055142;28;20818;-84
2022/11/15 03:21:44;;;;;;;20.47;13.27;;;5.30;99.90;;;;;;5055180;28;20411;-84
2022/11/15 03:24:12;;;;;;;18.53;10.50;;;5.30;99.90;;;;;;5055083;28;20436;-84
2022/11/15 03:26:40;;;;;;;23.93;13.37;;;5.30;99.90;;;;;;5054699;28;20408;-84
2022/11/15 03:29:17;;;;;;;20.87;10.27;;;5.30;99.90;;;;;;5055034;28;20409;-84
2022/11/15 03:31:53;;;;;;;21.97;13.20;;;5.30;99.90;;;;;;5055012;28;20423;-84
2022/11/15 03:34:40;;;;;;;21.17;11.77;;;5.40;99.90;;;;;;5054962;28;20816;-84
2022/11/15 03:37:09;;;;;;;21.13;13.20;;;5.40;99.90;;;;;;5054941;28;20456;-84
2022/11/15 03:39:34;;;;;;;15.97;11.00;;;5.40;99.90;;;;;;5054890;28;20810;-84
2022/11/15 03:42:32;;;;;;;19.67;11.17;;;5.40;99.90;;;;;;5054533;28;20529;-84
2022/11/15 03:45:00;;;;;;;23.60;13.73;;;5.50;99.90;;;;;;5049723;28;20196;-84
2022/11/15 03:47:36;;;;;;;19.60;11.27;;;5.40;99.90;;;;;;5054457;28;20461;-83
2022/11/15 03:50:10;;;;;;;14.10;10.33;;;5.50;99.90;;;;;;5054686;28;20964;-83
2022/11/15 03:52:37;;;;;;;18.33;12.37;;;5.50;99.90;;;;;;5036728;28;20417;-84
2022/11/15 03:55:04;;;;;;;20.30;11.03;;;5.50;99.90;;;;;;5036410;28;20425;-84
2022/11/15 03:57:30;;;;;;;19.60;11.37;;;5.50;99.90;;;;;;5054458;28;20453;-85
2022/11/15 03:59:55;;;;;;;18.90;10.90;;;5.50;99.90;;;;;;5054366;28;20974;-84
2022/11/15 04:02:21;;;;;;;15.90;10.33;;;5.50;99.90;;;;;;5054436;28;20183;-84
2022/11/15 04:04:46;;;;;;;15.23;10.60;;;5.50;99.90;;;;;;5054438;28;20533;-85
2022/11/15 04:07:12;;;;;;;22.47;12.33;;;5.50;99.90;;;;;;5054279;28;20671;-85
2022/11/15 04:10:01;;;;;;;23.97;12.20;;;5.50;99.90;;;;;;5054308;28;20173;-85
2022/11/15 04:12:30;;;;;;;17.03;10.10;;;5.50;99.90;;;;;;5054135;28;20167;-85
2022/11/15 04:15:09;;;;;;;20.23;10.57;;;5.50;99.90;;;;;;5054062;28;20475;-84
2022/11/15 04:17:49;;;;;;;18.67;10.90;;;5.50;99.90;;;;;;5054110;28;20458;-85
2022/11/15 04:26:01;;;;;;;16.73;10.57;;;5.40;99.90;;;;;;5053705;28;20463;-85
2022/11/15 04:28:26;;;;;;;18.40;10.30;;;5.50;99.90;;;;;;5053958;28;20422;-85
2022/11/15 04:30:55;;;;;;;21.03;10.90;;;5.50;99.90;;;;;;5053854;28;20949;-85
2022/11/15 04:33:21;;;;;;;14.67;9.73;;;5.60;99.90;;;;;;5053831;28;20847;-84
2022/11/15 04:37:11;;;;;;;17.17;10.27;;;5.70;99.90;;;;;;5053873;28;20772;-85
2022/11/15 04:38:34;;;;;;;20.60;10.70;;;5.80;99.90;;;;;;5053622;28;20483;-85
2022/11/15 04:41:00;;;;;;;14.87;10.50;;;5.90;99.90;;;;;;5053398;28;20425;-85
2022/11/15 04:43:25;;;;;;;18.63;10.83;;;6.00;99.90;;;;;;5053647;28;20471;-85
2022/11/15 04:45:51;;;;;;;17.13;9.73;;;6.00;99.90;;;;;;5053413;28;20207;-84
2022/11/15 04:48:19;;;;;;;18.53;10.20;;;6.10;99.90;;;;;;5053516;28;20582;-85
2022/11/15 04:50:47;;;;;;;16.37;10.83;;;6.10;99.90;;;;;;5053516;28;20185;-84
2022/11/15 04:53:12;;;;;;;17.30;9.20;;;6.20;99.90;;;;;;5053448;28;20554;-85
2022/11/15 04:55:38;;;;;;;17.43;10.27;;;6.20;99.90;;;;;;5053106;28;20501;-84
2022/11/15 04:58:03;;;;;;;14.73;8.83;;;6.20;99.90;;;;;;5035522;28;20286;-84
2022/11/15 05:00:29;;;;;;;17.77;10.63;;;6.30;99.90;;;;;;5053382;28;20171;-85
2022/11/15 05:05:40;;;;;;;14.57;9.53;;;6.30;99.90;;;;;;5053695;28;20808;-85
2022/11/15 05:08:06;;;;;;;17.50;11.03;;;6.30;99.90;;;;;;5053284;28;20418;-85
2022/11/15 05:10:31;;;;;;;15.33;9.83;;;6.40;99.90;;;;;;5052848;28;20774;-85
2022/11/15 05:12:57;;;;;;;18.17;11.80;;;6.50;99.90;;;;;;5053299;28;20173;-85
2022/11/15 05:15:22;;;;;;;15.80;9.93;;;6.50;99.90;;;;;;5053162;28;20259;-84
2022/11/15 05:17:48;;;;;;;14.80;9.90;;;6.60;99.90;;;;;;5051785;28;20282;-85
2022/11/15 05:20:13;;;;;;;13.87;8.60;;;6.60;99.90;;;;;;5054154;28;20570;-84
2022/11/15 05:22:39;;;;;;;19.97;10.53;;;6.50;99.90;;;;;;5059380;28;20223;-82
2022/11/15 05:25:05;;;;;;;13.27;8.67;;;6.50;99.90;;;;;;5058118;28;20199;-85
2022/11/15 05:27:31;;;;;;;16.07;9.60;;;6.60;99.90;;;;;;5053008;28;20162;-84
2022/11/15 05:29:56;;;;;;;16.90;9.20;;;6.60;99.90;;;;;;5053609;28;20421;-85
2022/11/15 05:32:22;;;;;;;13.50;9.30;;;6.70;99.90;;;;;;5053080;28;20291;-84
2022/11/15 05:34:47;;;;;;;13.10;9.23;;;6.70;99.90;;;;;;5052876;28;20184;-84
2022/11/15 05:37:13;;;;;;;15.53;8.57;;;6.80;99.90;;;;;;5052842;28;20176;-84
2022/11/15 05:39:39;;;;;;;14.97;9.00;;;6.80;99.90;;;;;;5052602;28;20251;-83
2022/11/15 05:42:12;;;;;;;13.47;9.23;;;6.70;99.90;;;;;;5052954;28;20415;-84
2022/11/15 05:44:40;;;;;;;14.50;10.53;;;6.70;99.90;;;;;;5052957;28;20268;-84
2022/11/15 05:47:10;;;;;;;14.47;9.43;;;6.80;99.90;;;;;;5052687;28;20814;-84
2022/11/15 05:49:39;;;;;;;12.80;8.90;;;6.80;99.90;;;;;;5052533;28;20431;-83
2022/11/15 05:52:07;;;;;;;12.43;7.00;;;6.70;99.90;;;;;;5050907;28;20422;-83
2022/11/15 05:54:34;;;;;;;13.50;9.07;;;6.70;99.90;;;;;;5051882;28;20432;-83
2022/11/15 05:57:00;;;;;;;14.50;8.33;;;6.60;99.90;;;;;;5052197;28;20409;-84
2022/11/15 05:59:27;;;;;;;18.33;9.90;;;6.70;99.90;;;;;;5052188;28;20477;-84
2022/11/15 06:01:53;;;;;;;14.10;9.60;;;6.60;99.90;;;;;;5052590;28;20196;-84
2022/11/15 06:04:18;;;;;;;14.43;9.33;;;6.60;99.90;;;;;;5052667;28;20454;-84
2022/11/15 06:06:44;;;;;;;16.20;10.70;;;6.50;99.90;;;;;;5052654;28;20656;-84
2022/11/15 06:09:09;;;;;;;17.77;10.47;;;6.60;99.90;;;;;;5052714;28;20180;-83
2022/11/15 06:11:35;;;;;;;15.60;9.57;;;6.60;99.90;;;;;;5052302;28;20176;-83
2022/11/15 06:14:01;;;;;;;20.30;11.70;;;6.60;99.90;;;;;;5052558;28;20505;-85
2022/11/15 06:16:27;;;;;;;14.57;10.10;;;6.60;99.90;;;;;;5052567;28;20248;-84
2022/11/15 06:18:55;;;;;;;15.27;9.80;;;6.70;99.90;;;;;;5052483;28;21061;-84
2022/11/15 06:21:22;;;;;;;12.17;8.90;;;6.60;99.90;;;;;;5052493;28;20181;-84
2022/11/15 06:23:47;;;;;;;15.50;9.53;;;6.70;99.90;;;;;;5051202;28;20925;-84
2022/11/15 06:26:13;;;;;;;14.97;9.50;;;6.60;99.90;;;;;;5052187;28;20416;-83
2022/11/15 06:28:38;;;;;;;15.80;10.40;;;6.60;99.90;;;;;;5052456;28;20275;-84
2022/11/15 06:31:05;;;;;;;15.27;9.90;;;6.70;99.90;;;;;;5052433;28;20171;-84
2022/11/15 06:33:31;;;;;;;13.90;9.77;;;6.70;99.90;;;;;;5052372;28;20199;-84
2022/11/15 06:36:03;;;;;;;16.83;10.00;;;6.70;99.90;;;;;;5052316;28;20410;-84
2022/11/15 06:38:29;;;;;;;13.90;8.97;;;6.70;99.90;;;;;;5053753;28;20219;-84
2022/11/15 06:40:54;;;;;;;17.37;10.20;;;6.70;99.90;;;;;;5055721;28;20414;-83
2022/11/15 06:43:20;;;;;;;16.43;9.67;;;6.70;99.90;;;;;;5055836;28;20207;-83
2022/11/15 06:45:46;;;;;;;14.43;8.03;;;6.60;99.90;;;;;;5055766;28;20216;-84
2022/11/15 06:48:11;;;;;;;14.13;10.00;;;6.60;99.90;;;;;;5055872;28;20181;-81
2022/11/15 06:50:37;;;;;;;13.30;9.00;;;6.70;99.90;;;;;;5054618;28;20176;-84
2022/11/15 06:53:05;;;;;;;18.13;10.03;;;6.70;99.90;;;;;;5037932;28;20173;-84
2022/11/15 06:55:31;;;;;;;13.37;8.83;;;6.70;99.90;;;;;;5055422;28;20187;-84
2022/11/15 06:57:56;;;;;;;18.77;10.77;;;6.70;99.90;;;;;;5037794;28;20477;-84
2022/11/15 07:00:23;;;;;;;14.73;9.27;;;6.70;99.90;;;;;;5055575;28;20637;-85
2022/11/15 07:02:48;;;;;;;9.93;7.90;;;6.70;99.90;;;;;;5055565;28;20179;-85
2022/11/15 07:05:15;;;;;;;12.80;9.33;;;6.70;99.90;;;;;;5055539;28;20426;-84
2022/11/15 07:07:40;;;;;;;15.27;10.10;;;6.70;99.90;;;;;;5053529;28;20186;-85
2022/11/15 07:10:07;;;;;;;13.47;9.93;;;6.80;99.90;;;;;;5035785;28;20880;-83
2022/11/15 07:12:33;;;;;;;16.70;11.27;;;6.80;99.90;;;;;;5054530;28;20172;-84
2022/11/15 07:14:58;;;;;;;15.80;9.50;;;6.80;99.90;;;;;;5055078;28;20429;-84
2022/11/15 07:17:24;;;;;;;14.83;9.20;;;6.80;99.90;;;;;;5055094;28;20699;-84
2022/11/15 07:19:49;;;;;;;14.10;8.90;;;6.80;99.90;;;;;;5055352;28;20188;-84
2022/11/15 07:22:24;;;;;;;15.50;9.87;;;6.90;99.90;;;;;;5055233;28;20314;-84
2022/11/15 07:24:49;;;;;;;16.30;9.70;;;7.00;99.90;;;;;;5055084;28;20179;-84
2022/11/15 07:27:15;;;;;;;13.40;7.73;;;6.90;99.90;;;;;;5055027;28;20422;-84
2022/11/15 07:29:40;;;;;;;14.77;10.67;;;7.00;99.90;;;;;;5055139;28;20262;-84
2022/11/15 07:32:06;;;;;;;16.67;9.40;;;7.00;99.90;;;;;;5055057;28;20628;-84
2022/11/15 07:34:31;;;;;;;14.00;8.07;;;6.90;99.90;;;;;;5037202;28;20187;-84
2022/11/15 07:36:57;;;;;;;15.30;9.77;;;6.90;99.90;;;;;;5055144;28;20176;-84
2022/11/15 07:39:22;;;;;;;15.83;9.60;;;7.00;99.90;;;;;;5054425;28;20207;-84
2022/11/15 07:41:49;;;;;;;11.47;8.70;;;7.00;99.90;;;;;;5054912;28;20574;-83
2022/11/15 07:44:14;;;;;;;13.33;8.57;;;7.00;99.90;;;;;;5054793;28;20200;-83
2022/11/15 07:46:40;;;;;;;18.60;9.80;;;7.00;99.90;;;;;;5054563;28;20535;-83
2022/11/15 07:49:05;;;;;;;14.80;10.00;;;7.00;99.90;;;;;;5054771;28;20286;-84
2022/11/15 07:51:31;;;;;;;15.40;10.80;;;7.10;99.90;;;;;;5054117;28;20664;-84
2022/11/15 07:53:56;;;;;;;19.77;9.20;;;7.00;99.90;;;;;;5054611;28;20184;-84
2022/11/15 07:56:22;;;;;;;14.13;9.83;;;7.10;99.90;;;;;;5054182;28;20713;-84
2022/11/15 07:58:47;;;;;;;14.50;10.17;;;7.10;99.90;;;;;;5036526;28;20238;-84
2022/11/15 08:01:13;;;;;;;17.17;10.47;;;7.10;99.90;;;;;;5054449;28;20171;-84
2022/11/15 08:03:41;;;;;;;14.60;9.03;;;7.10;99.90;;;;;;5054360;28;20210;-84
2022/11/15 08:06:07;;;;;;;12.93;9.37;;;7.10;99.90;;;;;;5053694;28;20255;-83
2022/11/15 08:08:32;;;;;;;19.30;11.17;;;7.10;99.90;;;;;;5049627;28;20576;-84
2022/11/15 08:10:58;;;;;;;15.10;8.80;;;7.10;99.90;;;;;;5053905;28;20654;-83
2022/11/15 08:13:24;;;;;;;14.27;9.57;;;7.20;99.90;;;;;;5053999;28;20180;-83
2022/11/15 08:15:49;;;;;;;14.40;9.33;;;7.20;99.90;;;;;;5054134;28;20414;-83
2022/11/15 08:18:16;;;;;;;16.00;10.17;;;7.20;99.90;;;;;;5054019;28;20202;-84
2022/11/15 08:20:42;;;;;;;13.37;7.80;;;7.30;99.90;;;;;;5054111;28;20184;-83
2022/11/15 08:23:10;;;;;;;16.27;9.63;;;7.20;99.90;;;;;;5053730;28;20410;-83
2022/11/15 08:25:37;;;;;;;12.80;8.10;;;7.20;99.90;;;;;;5052377;28;20425;-83
2022/11/15 08:28:05;;;;;;;15.77;9.33;;;7.30;99.90;;;;;;5052634;28;20835;-83
2022/11/15 08:30:34;;;;;;;12.40;9.00;;;7.20;99.90;;;;;;5042811;28;20415;-84
2022/11/15 08:32:59;;;;;;;15.40;9.03;;;7.30;99.90;;;;;;5043747;28;20508;-84
2022/11/15 08:35:25;;;;;;;12.27;8.80;;;7.20;99.90;;;;;;5041686;28;20985;-84
2022/11/15 08:37:53;;;;;;;15.30;8.43;;;7.30;99.90;;;;;;5052533;28;20216;-83
2022/11/15 08:40:19;;;;;;;14.63;8.43;;;7.30;99.90;;;;;;5052272;28;20167;-82
2022/11/15 08:42:46;;;;;;;11.60;9.37;;;7.30;99.90;;;;;;5049820;28;20482;-83
2022/11/15 08:45:12;;;;;;;11.57;8.17;;;7.30;99.90;;;;;;5052614;28;20407;-82
2022/11/15 08:47:38;;;;;;;14.03;9.33;;;7.40;99.90;;;;;;5023674;28;20466;-83
2022/11/15 08:50:04;;;;;;;13.13;8.00;;;7.60;99.90;;;;;;5046729;28;20446;-83
2022/11/15 08:52:29;;;;;;;11.80;7.53;;;7.70;99.90;;;;;;5053129;28;20580;-83
2022/11/15 08:54:55;;;;;;;16.47;9.07;;;8.20;99.90;;;;;;5034630;28;20429;-84
2022/11/15 08:57:21;;;;;;;13.20;8.60;;;9.40;99.90;;;;;;5034823;28;20171;-83
2022/11/15 08:59:46;;;;;;;12.73;8.40;;;9.80;99.90;;;;;;5052687;28;20187;-84
2022/11/15 09:02:15;;;;;;;11.63;7.43;;;10.90;99.90;;;;;;5051814;28;20223;-84
2022/11/15 09:04:42;;;;;;;11.00;6.90;;;11.10;1.00;;;;;;5034729;28;20536;-83
2022/11/15 09:07:08;;;;;;;10.33;6.63;;;10.70;1.00;;;;;;5031136;28;21046;-83
2022/11/15 09:09:34;;;;;;;11.83;8.70;;;11.00;1.00;;;;;;5031148;28;20432;-83
2022/11/15 09:11:59;;;;;;;10.20;7.50;;;11.90;1.00;;;;;;5030814;28;20413;-83
2022/11/15 09:14:25;;;;;;;10.73;7.93;;;12.40;99.90;;;;;;5031854;28;20635;-83
2022/11/15 09:16:50;;;;;;;9.67;7.10;;;12.50;1.00;;;;;;5031252;28;20650;-83
2022/11/15 09:19:16;;;;;;;9.70;6.23;;;12.60;99.90;;;;;;5032449;28;20211;-83
2022/11/15 09:21:41;;;;;;;9.10;6.73;;;13.40;99.90;;;;;;5032559;28;20164;-83
2022/11/15 09:24:07;;;;;;;11.43;6.37;;;13.80;1.00;;;;;;5032135;28;20179;-84
2022/11/15 09:26:32;;;;;;;10.17;6.43;;;13.60;1.00;;;;;;5032420;28;20274;-83
2022/11/15 09:28:58;;;;;;;12.50;6.40;;;13.90;99.90;;;;;;5032478;28;20197;-82
2022/11/15 09:31:24;;;;;;;8.97;6.93;;;13.50;99.90;;;;;;5032353;28;20171;-83
2022/11/15 09:33:49;;;;;;;12.13;7.27;;;13.10;1.00;;;;;;5032401;28;20173;-84
2022/11/15 09:36:16;;;;;;;12.40;6.90;;;11.70;99.90;;;;;;5032124;28;20428;-83
2022/11/15 09:38:42;;;;;;;14.50;7.07;;;10.70;1.00;;;;;;5032311;28;20206;-83
2022/11/15 09:41:13;;;;;;;9.43;7.17;;;10.10;99.90;;;;;;5032020;28;20417;-82
2022/11/15 09:44:13;;;;;;;12.07;7.33;;;10.00;99.90;;;;;;5032328;28;20170;-82
2022/11/15 09:46:41;;;;;;;9.57;7.03;;;9.90;99.90;;;;;;5031079;28;20472;-88
2022/11/15 09:49:08;;;;;;;12.40;7.33;;;10.00;99.90;;;;;;5032238;28;20432;-83
2022/11/15 09:51:46;;;;;;;13.43;6.83;;;9.90;99.90;;;;;;5032234;28;20847;-84
2022/11/15 09:54:28;;;;;;;9.20;6.90;;;10.00;99.90;;;;;;5031957;28;20861;-84
2022/11/15 09:57:02;;;;;;;9.00;5.63;;;9.90;99.90;;;;;;5032179;28;20403;-83
2022/11/15 09:59:45;;;;;;;8.83;6.90;;;9.90;99.90;;;;;;5032203;28;20470;-84
2022/11/15 10:02:29;;;;;;;10.90;7.20;;;9.80;99.90;;;;;;5032237;28;20745;-83
2022/11/15 10:04:58;;;;;;;11.37;6.20;;;9.80;99.90;;;;;;5032176;28;20422;-85
2022/11/15 10:07:32;;;;;;;11.83;6.90;;;9.80;99.90;;;;;;5032393;28;20567;-84
2022/11/15 10:10:33;;;;;;;11.87;7.50;;;9.80;99.90;;;;;;5032363;28;20810;-83
2022/11/15 10:12:59;;;;;;;12.17;8.20;;;9.80;99.90;;;;;;5032682;28;20429;-83
2022/11/15 10:15:25;;;;;;;11.40;6.70;;;9.90;99.90;;;;;;5035875;28;20406;-83
2022/11/15 10:18:15;;;;;;;12.50;6.93;;;9.80;99.90;;;;;;5035754;28;20196;-84
2022/11/15 10:20:58;;;;;;;10.73;6.97;;;9.80;99.90;;;;;;5035787;28;20963;-83
2022/11/15 10:23:24;;;;;;;11.20;6.50;;;9.90;99.90;;;;;;5035942;28;20415;-84
2022/11/15 10:26:01;;;;;;;11.33;6.30;;;9.90;99.90;;;;;;5034882;28;20514;-87
2022/11/15 10:28:27;;;;;;;11.57;6.90;;;9.90;99.90;;;;;;5036299;28;20196;-87
2022/11/15 10:30:54;;;;;;;11.00;7.37;;;9.90;99.90;;;;;;5036347;28;20407;-89
2022/11/15 10:33:39;;;;;;;12.50;6.80;;;9.90;99.90;;;;;;5038683;28;20187;-88
2022/11/15 10:36:21;;;;;;;11.07;5.80;;;10.00;99.90;;;;;;5055707;28;20923;-87
2022/11/15 10:38:49;;;;;;;12.80;6.70;;;10.10;99.90;;;;;;5054607;28;20471;-87
2022/11/15 10:41:19;;;;;;;10.60;7.17;;;10.10;99.90;;;;;;5037699;28;20503;-90
2022/11/15 10:44:01;;;;;;;11.57;6.70;;;10.20;99.90;;;;;;5055452;28;20415;-87
2022/11/15 10:46:26;;;;;;;9.60;7.60;;;10.20;99.90;;;;;;5058239;28;20561;-84
2022/11/15 10:48:52;;;;;;;10.20;6.93;;;10.10;99.90;;;;;;5077485;28;20444;-83
2022/11/15 10:51:29;;;;;;;10.07;5.97;;;10.10;99.90;;;;;;5075637;28;20164;-84
2022/11/15 10:53:58;;;;;;;11.63;6.57;;;10.10;99.90;;;;;;5077677;28;20176;-85
2022/11/15 10:56:26;;;;;;;10.67;5.60;;;10.10;99.90;;;;;;5068879;28;20421;-85
2022/11/15 10:58:55;;;;;;;13.90;7.40;;;10.20;99.90;;;;;;5055231;28;20555;-85
2022/11/15 11:01:24;;;;;;;10.80;7.40;;;10.40;99.90;;;;;;5053194;28;20413;-85
2022/11/15 11:04:07;;;;;;;9.60;6.60;;;10.50;99.90;;;;;;5052729;28;20443;-85
2022/11/15 11:06:48;;;;;;;13.20;7.70;;;10.40;99.90;;;;;;5054190;28;20444;-84
2022/11/15 11:09:33;;;;;;;13.13;7.20;;;10.60;99.90;;;;;;5053947;28;20425;-85
2022/11/15 11:12:00;;;;;;;9.63;6.07;;;10.70;99.90;;;;;;5054721;28;20430;-84
2022/11/15 11:14:31;;;;;;;9.77;5.70;;;10.70;99.90;;;;;;5054723;28;20410;-84
2022/11/15 11:17:08;;;;;;;10.30;6.90;;;10.70;99.90;;;;;;5054794;28;20411;-84
2022/11/15 11:20:07;;;;;;;10.57;6.00;;;10.70;99.90;;;;;;5054534;28;20475;-84
2022/11/15 11:23:11;;;;;;;12.07;7.00;;;10.70;99.90;;;;;;5054633;28;20419;-84
2022/11/15 11:25:55;;;;;;;9.07;5.87;;;10.70;99.90;;;;;;5053379;28;20507;-84
2022/11/15 11:28:41;;;;;;;6.60;5.17;;;10.60;99.90;;;;;;5054540;28;20408;-84
2022/11/15 11:31:29;;;;;;;9.17;5.70;;;10.60;99.90;;;;;;5054529;28;21073;-84
2022/11/15 11:34:22;;;;;;;9.10;5.40;;;10.70;99.90;;;;;;5054014;28;20413;-84
2022/11/15 11:37:04;;;;;;;5.90;4.93;;;10.70;99.90;;;;;;5054340;28;20411;-84
2022/11/15 11:40:00;;;;;;;8.17;5.00;;;10.70;99.90;;;;;;5053802;28;20971;-84
2022/11/15 11:42:58;;;;;;;8.00;4.93;;;10.90;99.90;;;;;;5054336;28;20400;-84
2022/11/15 11:45:30;;;;;;;9.90;5.47;;;10.90;99.90;;;;;;5054026;28;20414;-86
2022/11/15 11:48:03;;;;;;;7.57;6.37;;;11.00;99.90;;;;;;5054157;28;20419;-86
2022/11/15 11:50:28;;;;;;;7.13;4.70;;;11.10;99.90;;;;;;5054082;28;20899;-87
2022/11/15 11:53:04;;;;;;;8.50;5.40;;;11.20;99.90;;;;;;5054048;28;20425;-86
2022/11/15 11:55:37;;;;;;;7.23;5.20;;;11.20;99.90;;;;;;5053627;28;20180;-85
2022/11/15 11:58:25;;;;;;;10.43;5.90;;;11.20;99.90;;;;;;5053910;28;20459;-85
2022/11/15 12:01:26;;;;;;;14.33;5.00;;;11.30;99.90;;;;;;5053707;28;20411;-84
2022/11/15 12:04:00;;;;;;;6.97;4.50;;;11.20;99.90;;;;;;5053876;28;20416;-85
2022/11/15 12:06:41;;;;;;;9.70;5.47;;;11.30;99.90;;;;;;5053693;28;20391;-86
2022/11/15 12:09:37;;;;;;;8.13;5.20;;;11.30;99.90;;;;;;5035673;28;20450;-83
2022/11/15 12:12:31;;;;;;;7.83;4.87;;;11.30;99.90;;;;;;5053763;28;20813;-84
2022/11/15 12:15:10;;;;;;;9.27;5.50;;;11.40;99.90;;;;;;5053643;28;20419;-86
2022/11/15 12:17:40;;;;;;;10.37;5.43;;;11.40;99.90;;;;;;5053415;28;20935;-84
2022/11/15 12:20:23;;;;;;;10.43;6.17;;;11.40;99.90;;;;;;5053537;28;20774;-85
2022/11/15 12:23:08;;;;;;;8.00;4.63;;;11.50;99.90;;;;;;5053628;28;20498;-84
2022/11/15 12:25:58;;;;;;;7.60;4.90;;;11.50;99.90;;;;;;5053662;28;20938;-86
2022/11/15 12:28:48;;;;;;;11.70;5.40;;;11.70;99.90;;;;;;5053385;28;20531;-86
2022/11/15 12:31:40;;;;;;;10.60;6.80;;;11.80;99.90;;;;;;5053344;28;20409;-86
2022/11/15 12:34:18;;;;;;;9.30;5.30;;;12.00;99.90;;;;;;5053222;28;20431;-86
2022/11/15 12:36:44;;;;;;;7.07;5.03;;;12.00;99.90;;;;;;5053081;28;20515;-86
2022/11/15 12:39:14;;;;;;;13.43;5.57;;;12.00;99.90;;;;;;5052537;28;20914;-85
2022/11/15 12:41:42;;;;;;;8.87;5.70;;;12.00;99.90;;;;;;5052415;28;20179;-84
2022/11/15 12:44:13;;;;;;;8.73;4.90;;;12.00;99.90;;;;;;5052623;28;20421;-84
2022/11/15 12:46:41;;;;;;;10.63;5.60;;;12.00;99.90;;;;;;5034793;28;20474;-84
2022/11/15 12:49:27;;;;;;;8.33;5.90;;;12.00;99.90;;;;;;5052995;28;20934;-85
2022/11/15 12:51:58;;;;;;;6.90;4.97;;;12.10;99.90;;;;;;5052706;28;20470;-85
2022/11/15 12:54:23;;;;;;;6.73;4.60;;;12.10;99.90;;;;;;5052555;28;20483;-86
2022/11/15 12:57:06;;;;;;;9.70;6.20;;;12.10;99.90;;;;;;5052742;28;20404;-85
2022/11/15 12:59:57;;;;;;;8.33;5.30;;;12.10;99.90;;;;;;5034712;28;20237;-85
2022/11/15 13:02:36;;;;;;;7.80;4.90;;;12.00;99.90;;;;;;5052795;28;20758;-85
2022/11/15 13:05:18;;;;;;;9.30;6.10;;;12.10;99.90;;;;;;5052715;28;20400;-85
2022/11/15 13:07:44;;;;;;;10.10;6.60;;;12.10;99.90;;;;;;5052664;28;20404;-84
2022/11/15 13:10:12;;;;;;;8.83;5.53;;;12.00;99.90;;;;;;5052193;28;20419;-84